createdAt,value
2023-05-08T00:01:55.472Z,11.55
2023-05-08T00:04:22.135Z,11.58
2023-05-08T00:06:48.842Z,11.58
2023-05-08T00:09:15.390Z,11.59
2023-05-08T00:11:41.995Z,11.59
2023-05-08T00:14:08.640Z,11.57
2023-05-08T00:16:35.265Z,11.56
2023-05-08T00:19:01.972Z,11.56
2023-05-08T00:21:28.570Z,11.56
2023-05-08T00:23:55.204Z,11.55
2023-05-08T00:26:21.903Z,11.55
2023-05-08T00:28:48.418Z,11.53
2023-05-08T00:31:15.056Z,11.50
2023-05-08T00:33:41.638Z,11.47
2023-05-08T00:36:08.314Z,11.48
2023-05-08T00:38:36.226Z,11.47
2023-05-08T00:41:04.463Z,11.45
2023-05-08T00:43:31.005Z,11.44
2023-05-08T00:46:01.054Z,11.39
2023-05-08T00:48:30.553Z,11.38
2023-05-08T00:50:58.192Z,11.37
2023-05-08T00:53:26.605Z,11.35
2023-05-08T00:55:53.833Z,11.31
2023-05-08T00:58:21.504Z,11.30
2023-05-08T01:00:51.756Z,11.29
2023-05-08T01:03:18.590Z,11.28
2023-05-08T01:05:46.024Z,11.30
2023-05-08T01:08:12.631Z,11.29
2023-05-08T01:10:53.689Z,11.30
2023-05-08T01:13:49.759Z,11.30
2023-05-08T01:16:44.228Z,11.31
2023-05-08T01:19:32.861Z,11.28
2023-05-08T01:22:20.865Z,11.26
2023-05-08T01:25:16.278Z,11.27
2023-05-08T01:28:01.664Z,11.33
2023-05-08T01:30:37.918Z,11.29
2023-05-08T01:33:37.252Z,11.31
2023-05-08T01:36:17.815Z,11.29
2023-05-08T01:38:56.271Z,11.26
2023-05-08T01:41:30.536Z,11.25
2023-05-08T01:44:03.033Z,11.25
2023-05-08T01:46:32.951Z,11.23
2023-05-08T01:49:08.218Z,11.22
2023-05-08T01:51:44.889Z,11.24
2023-05-08T01:54:22.331Z,11.24
2023-05-08T01:56:53.106Z,11.25
2023-05-08T01:59:23.794Z,11.25
2023-05-08T02:01:54.272Z,11.25
2023-05-08T02:04:22.969Z,11.25
2023-05-08T02:06:52.107Z,11.25
2023-05-08T02:09:21.364Z,11.23
2023-05-08T02:11:50.879Z,11.25
2023-05-08T02:14:19.752Z,11.25
2023-05-08T02:16:50.830Z,11.26
2023-05-08T02:19:21.924Z,11.27
2023-05-08T02:21:50.865Z,11.25
2023-05-08T02:24:18.361Z,11.26
2023-05-08T02:26:46.906Z,11.28
2023-05-08T02:29:14.719Z,11.28
2023-05-08T02:31:42.286Z,11.27
2023-05-08T02:34:10.558Z,11.25
2023-05-08T02:36:39.240Z,11.26
2023-05-08T02:39:08.194Z,11.25
2023-05-08T02:41:37.210Z,11.24
2023-05-08T02:44:04.145Z,11.24
2023-05-08T02:46:44.407Z,11.26
2023-05-08T02:49:30.218Z,11.24
2023-05-08T03:03:33.093Z,11.20
2023-05-08T03:06:52.395Z,11.20
2023-05-08T03:09:23.043Z,11.18
2023-05-08T03:11:53.968Z,11.16
2023-05-08T03:14:24.770Z,11.17
2023-05-08T03:16:53.624Z,11.18
2023-05-08T03:19:27.231Z,11.21
2023-05-08T03:21:56.116Z,11.23
2023-05-08T03:24:25.365Z,11.24
2023-05-08T03:26:52.248Z,11.24
2023-05-08T03:29:20.326Z,11.25
2023-05-08T03:31:47.464Z,11.26
2023-05-08T03:34:15.975Z,11.30
2023-05-08T03:36:43.197Z,11.32
2023-05-08T03:39:09.899Z,11.34
2023-05-08T03:41:36.458Z,11.35
2023-05-08T03:44:03.672Z,11.35
2023-05-08T03:46:32.111Z,11.36
2023-05-08T03:49:00.316Z,11.38
2023-05-08T03:51:28.507Z,11.38
2023-05-08T03:53:55.007Z,11.37
2023-05-08T03:56:22.101Z,11.36
2023-05-08T03:59:01.841Z,11.33
2023-05-08T04:01:48.768Z,11.25
2023-05-08T04:04:30.773Z,11.18
2023-05-08T04:07:06.020Z,11.13
2023-05-08T04:09:56.255Z,11.12
2023-05-08T04:12:45.513Z,11.12
2023-05-08T04:15:21.623Z,11.12
2023-05-08T04:17:53.993Z,11.11
2023-05-08T04:20:24.501Z,11.10
2023-05-08T04:22:54.360Z,11.11
2023-05-08T04:25:21.364Z,11.08
2023-05-08T04:27:51.169Z,11.07
2023-05-08T04:30:18.113Z,11.06
2023-05-08T04:32:46.658Z,11.06
2023-05-08T04:35:14.582Z,11.08
2023-05-08T04:37:43.467Z,11.08
2023-05-08T04:40:10.911Z,11.12
2023-05-08T04:42:39.419Z,11.16
2023-05-08T04:45:06.915Z,11.18
2023-05-08T04:47:33.495Z,11.22
2023-05-08T04:50:02.198Z,11.25
2023-05-08T04:52:31.615Z,11.28
2023-05-08T04:54:58.274Z,11.30
2023-05-08T04:57:24.832Z,11.30
2023-05-08T04:59:51.590Z,11.30
2023-05-08T05:02:18.432Z,11.32
2023-05-08T05:04:44.953Z,11.34
2023-05-08T05:07:11.510Z,11.39
2023-05-08T05:09:39.178Z,11.42
2023-05-08T05:12:07.260Z,11.45
2023-05-08T05:14:33.837Z,11.55
2023-05-08T05:17:00.475Z,11.63
2023-05-08T05:19:27.199Z,11.72
2023-05-08T05:21:53.998Z,11.85
2023-05-08T05:24:20.558Z,11.97
2023-05-08T05:26:47.067Z,12.02
2023-05-08T05:29:13.594Z,12.04
2023-05-08T05:31:40.312Z,12.02
2023-05-08T05:34:06.907Z,12.11
2023-05-08T05:36:33.478Z,12.02
2023-05-08T05:38:59.944Z,11.94
2023-05-08T05:41:26.404Z,11.83
2023-05-08T05:43:53.014Z,11.81
2023-05-08T05:46:19.533Z,12.10
2023-05-08T05:48:46.089Z,12.64
2023-05-08T05:51:12.656Z,12.51
2023-05-08T05:53:40.209Z,12.27
2023-05-08T05:56:06.997Z,12.23
2023-05-08T05:58:33.688Z,12.86
2023-05-08T06:01:03.216Z,14.04
2023-05-08T06:03:29.830Z,13.41
2023-05-08T06:05:56.694Z,13.21
2023-05-08T06:08:23.462Z,13.22
2023-05-08T06:10:49.913Z,13.08
2023-05-08T06:13:16.551Z,12.90
2023-05-08T06:15:43.261Z,12.80
2023-05-08T06:18:09.812Z,12.75
2023-05-08T06:20:38.561Z,12.81
2023-05-08T06:23:05.692Z,12.93
2023-05-08T06:25:32.180Z,12.80
2023-05-08T06:27:58.670Z,12.83
2023-05-08T06:30:25.431Z,12.76
2023-05-08T06:32:51.954Z,12.67
2023-05-08T06:35:19.533Z,12.64
2023-05-08T06:37:46.706Z,12.70
2023-05-08T06:40:13.835Z,12.74
2023-05-08T06:42:41.363Z,12.76
2023-05-08T06:45:09.456Z,12.92
2023-05-08T06:47:35.977Z,13.08
2023-05-08T06:50:03.274Z,13.05
2023-05-08T06:52:29.870Z,12.93
2023-05-08T06:54:56.322Z,12.78
2023-05-08T06:57:24.247Z,12.93
2023-05-08T06:59:50.770Z,12.84
2023-05-08T07:02:17.242Z,13.19
2023-05-08T07:04:44.409Z,13.24
2023-05-08T07:07:11.617Z,13.30
2023-05-08T07:09:38.189Z,13.27
2023-05-08T07:12:05.137Z,13.35
2023-05-08T07:14:31.874Z,13.21
2023-05-08T07:16:58.766Z,13.39
2023-05-08T07:19:25.350Z,13.29
2023-05-08T07:21:51.879Z,13.63
2023-05-08T07:24:18.363Z,13.54
2023-05-08T07:26:44.836Z,13.97
2023-05-08T07:29:12.369Z,14.10
2023-05-08T07:31:42.004Z,13.94
2023-05-08T07:34:08.554Z,14.20
2023-05-08T07:36:35.066Z,14.28
2023-05-08T07:39:01.612Z,14.06
2023-05-08T07:41:28.130Z,14.04
2023-05-08T07:43:54.631Z,13.84
2023-05-08T07:46:21.795Z,13.67
2023-05-08T07:48:49.403Z,13.82
2023-05-08T07:51:16.441Z,14.02
2023-05-08T07:53:43.722Z,14.02
2023-05-08T07:56:10.294Z,13.94
2023-05-08T07:58:36.801Z,14.27
2023-05-08T08:01:05.397Z,14.65
2023-05-08T08:03:32.150Z,14.67
2023-05-08T08:05:58.796Z,15.07
2023-05-08T08:08:25.610Z,15.37
2023-05-08T08:10:52.788Z,15.38
2023-05-08T08:13:19.523Z,15.41
2023-05-08T08:15:46.157Z,15.16
2023-05-08T08:18:13.159Z,15.45
2023-05-08T08:20:39.757Z,15.73
2023-05-08T08:23:07.696Z,15.91
2023-05-08T08:25:34.376Z,15.75
2023-05-08T08:28:01.060Z,15.51
2023-05-08T08:30:27.783Z,15.16
2023-05-08T08:32:54.429Z,15.02
2023-05-08T08:35:20.998Z,15.10
2023-05-08T08:37:47.480Z,15.34
2023-05-08T08:40:14.168Z,15.65
2023-05-08T08:42:40.967Z,15.39
2023-05-08T08:45:08.396Z,15.04
2023-05-08T08:47:41.346Z,15.55
2023-05-08T08:50:11.460Z,15.96
2023-05-08T08:52:54.608Z,16.29
2023-05-08T08:55:23.307Z,16.47
2023-05-08T08:58:08.581Z,16.78
2023-05-08T09:00:37.479Z,17.09
2023-05-08T09:03:06.629Z,17.53
2023-05-08T09:05:34.275Z,17.28
2023-05-08T09:08:01.352Z,16.99
2023-05-08T09:10:28.160Z,16.59
2023-05-08T09:12:54.809Z,16.39
2023-05-08T09:15:22.014Z,16.34
2023-05-08T09:17:48.594Z,16.49
2023-05-08T09:20:16.214Z,16.58
2023-05-08T09:22:43.654Z,16.72
2023-05-08T09:25:10.913Z,16.84
2023-05-08T09:27:37.758Z,16.59
2023-05-08T09:30:12.872Z,16.53
2023-05-08T09:32:41.259Z,16.48
2023-05-08T09:35:09.245Z,16.20
2023-05-08T09:37:39.297Z,16.17
2023-05-08T09:40:14.653Z,16.05
2023-05-08T09:42:41.636Z,16.04
2023-05-08T09:45:09.502Z,15.89
2023-05-08T09:47:40.290Z,15.89
2023-05-08T09:50:11.072Z,15.85
2023-05-08T09:52:40.291Z,15.69
2023-05-08T09:55:09.416Z,15.74
2023-05-08T09:57:39.185Z,15.78
2023-05-08T10:00:08.827Z,15.78
2023-05-08T10:02:37.471Z,15.79
2023-05-08T10:05:05.973Z,15.87
2023-05-08T10:07:34.624Z,15.95
2023-05-08T10:10:06.492Z,15.91
2023-05-08T10:12:33.982Z,15.89
2023-05-08T10:15:00.593Z,16.00
2023-05-08T10:17:52.865Z,15.93
2023-05-08T10:20:21.628Z,16.15
2023-05-08T10:22:50.741Z,16.12
2023-05-08T10:25:27.648Z,16.14
2023-05-08T10:28:33.176Z,16.20
2023-05-08T10:31:03.868Z,16.38
2023-05-08T10:33:32.069Z,16.48
2023-05-08T10:35:59.976Z,16.59
2023-05-08T10:38:27.431Z,16.60
2023-05-08T10:40:58.907Z,16.69
2023-05-08T10:43:25.941Z,16.91
2023-05-08T10:45:57.542Z,17.07
2023-05-08T11:26:16.573Z,17.06
2023-05-08T11:28:58.820Z,16.95
2023-05-08T11:31:52.426Z,16.72
2023-05-08T11:34:44.183Z,16.66
2023-05-08T11:37:11.453Z,16.58
2023-05-08T11:39:38.045Z,16.52
2023-05-08T11:42:29.263Z,16.42
2023-05-08T11:45:14.206Z,16.31
2023-05-08T11:47:42.946Z,16.28
2023-05-08T11:50:11.561Z,16.23
2023-05-08T11:52:40.743Z,16.21
2023-05-08T11:55:09.719Z,16.16
2023-05-08T11:57:36.366Z,16.17
2023-05-08T12:00:08.137Z,16.17
2023-05-08T12:02:42.901Z,16.24
2023-05-08T12:05:12.635Z,16.24
2023-05-08T12:07:46.580Z,16.27
2023-05-08T12:10:15.286Z,16.28
2023-05-08T12:12:44.466Z,16.12
2023-05-08T12:15:15.356Z,16.10
2023-05-08T12:17:42.947Z,16.16
2023-05-08T12:20:17.642Z,16.12
2023-05-08T12:22:52.742Z,15.90
2023-05-08T12:25:20.094Z,15.77
2023-05-08T12:27:46.903Z,15.83
2023-05-08T12:30:14.916Z,15.79
2023-05-08T12:32:43.339Z,15.84
2023-05-08T12:35:13.983Z,15.96
2023-05-08T12:37:40.613Z,16.05
2023-05-08T12:40:08.537Z,16.03
2023-05-08T12:42:51.409Z,16.06
2023-05-08T12:45:23.427Z,16.04
2023-05-08T12:47:51.459Z,15.92
2023-05-08T12:50:23.012Z,16.03
2023-05-08T12:52:51.760Z,16.04
2023-05-08T12:55:25.437Z,16.03
2023-05-08T12:58:15.103Z,16.09
2023-05-08T13:00:53.806Z,16.12
2023-05-08T13:03:28.823Z,16.24
2023-05-08T13:05:57.901Z,16.51
2023-05-08T13:08:34.598Z,16.81
2023-05-08T13:11:02.484Z,16.83
2023-05-08T13:13:37.020Z,16.77
2023-05-08T13:16:07.565Z,16.90
2023-05-08T13:18:36.822Z,16.63
2023-05-08T13:21:03.851Z,16.57
2023-05-08T13:23:30.741Z,16.55
2023-05-08T13:25:57.294Z,16.67
2023-05-08T13:28:23.802Z,17.04
2023-05-08T13:30:50.352Z,17.32
2023-05-08T13:33:16.845Z,17.54
2023-05-08T13:35:43.429Z,17.77
2023-05-08T13:38:10.050Z,17.56
2023-05-08T13:40:36.620Z,17.54
2023-05-08T13:43:04.332Z,17.54
2023-05-08T13:45:32.310Z,17.71
2023-05-08T13:47:58.927Z,17.83
2023-05-08T13:50:25.509Z,17.93
2023-05-08T13:52:54.743Z,17.78
2023-05-08T13:55:22.805Z,17.95
2023-05-08T13:57:49.617Z,17.95
2023-05-08T14:00:16.584Z,17.67
2023-05-08T14:02:43.379Z,17.30
2023-05-08T14:05:10.124Z,17.65
2023-05-08T14:07:36.772Z,18.08
2023-05-08T14:10:03.849Z,18.32
2023-05-08T14:12:30.525Z,18.71
2023-05-08T14:14:57.196Z,18.72
2023-05-08T14:17:23.940Z,18.79
2023-05-08T14:19:51.512Z,18.64
2023-05-08T14:22:18.108Z,18.78
2023-05-08T14:24:48.388Z,18.62
2023-05-08T14:27:14.942Z,18.69
2023-05-08T14:29:41.573Z,18.40
2023-05-08T14:32:09.415Z,18.58
2023-05-08T14:34:36.988Z,18.51
2023-05-08T14:37:04.831Z,18.19
2023-05-08T14:39:31.471Z,18.25
2023-05-08T14:42:18.343Z,18.09
2023-05-08T14:44:44.458Z,18.03
2023-05-08T14:47:11.014Z,18.12
2023-05-08T14:49:38.823Z,18.07
2023-05-08T14:52:06.574Z,18.09
2023-05-08T14:54:33.569Z,17.98
2023-05-08T14:57:00.352Z,18.23
2023-05-08T14:59:26.828Z,18.23
2023-05-08T15:01:53.513Z,18.52
2023-05-08T15:04:20.515Z,18.43
2023-05-08T15:06:48.406Z,18.72
2023-05-08T15:09:16.712Z,18.63
2023-05-08T15:11:44.230Z,18.88
2023-05-08T15:14:11.034Z,18.72
2023-05-08T15:16:37.598Z,18.98
2023-05-08T15:19:04.139Z,19.02
2023-05-08T15:21:31.058Z,18.80
2023-05-08T15:23:57.594Z,18.97
2023-05-08T15:26:24.136Z,19.08
2023-05-08T15:28:51.009Z,19.35
2023-05-08T15:31:18.462Z,19.34
2023-05-08T15:33:45.584Z,19.29
2023-05-08T15:36:15.860Z,19.01
2023-05-08T15:38:42.835Z,18.69
2023-05-08T15:41:15.431Z,18.90
2023-05-08T15:43:43.250Z,18.87
2023-05-08T15:46:10.170Z,18.71
2023-05-08T15:48:37.906Z,18.53
2023-05-08T15:51:04.446Z,18.22
2023-05-08T15:53:30.959Z,18.39
2023-05-08T15:55:57.603Z,18.46
2023-05-08T15:58:24.253Z,18.26
2023-05-08T16:00:50.941Z,18.15
2023-05-08T16:03:17.826Z,18.09
2023-05-08T16:05:44.608Z,18.09
2023-05-08T16:08:12.873Z,17.83
2023-05-08T16:10:42.198Z,17.88
2023-05-08T16:13:09.600Z,17.82
2023-05-08T16:15:36.374Z,17.68
2023-05-08T16:18:03.152Z,17.76
2023-05-08T16:20:30.241Z,17.85
2023-05-08T16:22:57.679Z,17.91
2023-05-08T16:25:24.913Z,17.89
2023-05-08T16:27:51.630Z,17.84
2023-05-08T16:30:18.536Z,17.87
2023-05-08T16:32:48.034Z,17.86
2023-05-08T16:35:15.019Z,17.78
2023-05-08T16:37:42.380Z,17.70
2023-05-08T16:40:10.184Z,17.66
2023-05-08T16:42:37.293Z,17.62
2023-05-08T16:45:05.144Z,17.48
2023-05-08T16:47:31.811Z,17.33
2023-05-08T16:49:58.649Z,17.11
2023-05-08T16:52:25.290Z,16.93
2023-05-08T16:54:52.384Z,16.87
2023-05-08T16:57:18.926Z,16.61
2023-05-08T16:59:45.488Z,16.65
2023-05-08T17:02:15.571Z,16.61
2023-05-08T17:04:42.172Z,16.66
2023-05-08T17:07:08.728Z,16.75
2023-05-08T17:09:35.279Z,16.70
2023-05-08T17:12:02.251Z,16.64
2023-05-08T17:14:28.814Z,16.50
2023-05-08T17:16:55.406Z,16.52
2023-05-08T17:19:22.171Z,16.36
2023-05-08T17:21:48.810Z,16.02
2023-05-08T17:24:15.315Z,15.71
2023-05-08T17:26:41.879Z,15.39
2023-05-08T17:29:08.402Z,15.17
2023-05-08T17:31:34.978Z,15.11
2023-05-08T17:34:01.541Z,15.01
2023-05-08T17:36:28.118Z,14.90
2023-05-08T17:38:55.472Z,14.76
2023-05-08T17:41:22.757Z,14.63
2023-05-08T17:43:49.449Z,14.57
2023-05-08T17:46:16.566Z,14.53
2023-05-08T17:48:43.545Z,14.47
2023-05-08T17:51:13.949Z,14.40
2023-05-08T17:53:40.690Z,14.29
2023-05-08T17:56:07.682Z,14.19
2023-05-08T17:58:34.340Z,14.21
2023-05-08T18:01:00.924Z,14.19
2023-05-08T18:03:27.936Z,14.09
2023-05-08T18:06:05.360Z,14.15
2023-05-08T18:08:39.165Z,14.09
2023-05-08T18:11:21.615Z,14.06
2023-05-08T18:13:49.429Z,14.01
2023-05-08T18:16:19.349Z,13.94
2023-05-08T18:18:57.596Z,13.87
2023-05-08T18:21:36.150Z,13.83
2023-05-08T18:24:06.946Z,13.73
2023-05-08T18:26:33.511Z,13.65
2023-05-08T18:28:59.968Z,13.56
2023-05-08T18:31:26.638Z,13.51
2023-05-08T18:33:53.155Z,13.41
2023-05-08T18:36:19.672Z,13.37
2023-05-08T18:38:46.128Z,13.29
2023-05-08T18:41:12.665Z,13.18
2023-05-08T18:43:39.385Z,13.15
2023-05-08T18:46:12.259Z,13.05
2023-05-08T18:48:42.083Z,12.97
2023-05-08T18:51:08.688Z,12.90
2023-05-08T18:53:38.319Z,12.86
2023-05-08T18:56:05.684Z,12.79
2023-05-08T18:58:32.454Z,12.71
2023-05-08T19:00:59.308Z,12.64
2023-05-08T19:03:26.456Z,12.63
2023-05-08T19:05:56.157Z,12.56
2023-05-08T19:08:22.706Z,12.52
2023-05-08T19:10:49.206Z,12.49
2023-05-08T19:13:15.978Z,12.47
2023-05-08T19:15:42.590Z,12.46
2023-05-08T19:18:09.349Z,12.42
2023-05-08T19:20:35.990Z,12.35
2023-05-08T19:23:03.952Z,12.26
2023-05-08T19:25:30.759Z,12.16
2023-05-08T19:27:58.644Z,12.12
2023-05-08T19:30:25.257Z,12.14
2023-05-08T19:32:52.008Z,12.06
2023-05-08T19:35:18.545Z,12.01
2023-05-08T19:37:45.060Z,11.98
2023-05-08T19:40:12.258Z,11.93
2023-05-08T19:42:38.911Z,11.87
2023-05-08T19:45:05.792Z,11.83
2023-05-08T19:47:32.298Z,11.78
2023-05-08T19:49:58.767Z,11.75
2023-05-08T19:52:25.271Z,11.67
2023-05-08T19:54:51.861Z,11.61
2023-05-08T19:57:18.355Z,11.58
2023-05-08T19:59:44.828Z,11.54
2023-05-08T20:02:11.480Z,11.53
2023-05-08T20:05:03.816Z,11.55
2023-05-08T20:07:24.571Z,11.50
2023-05-08T20:09:51.108Z,11.48
2023-05-08T20:12:17.680Z,11.44
2023-05-08T20:14:44.312Z,11.40
2023-05-08T20:17:12.292Z,11.35
2023-05-08T20:19:38.965Z,11.32
2023-05-08T20:22:05.752Z,11.26
2023-05-08T20:24:32.432Z,11.25
2023-05-08T20:27:00.129Z,11.28
2023-05-08T20:29:26.848Z,11.31
2023-05-08T20:31:53.750Z,11.37
2023-05-08T20:34:21.921Z,11.40
2023-05-08T20:36:48.725Z,11.42
2023-05-08T20:39:15.273Z,11.42
2023-05-08T20:41:41.774Z,11.43
2023-05-08T20:44:08.581Z,11.44
2023-05-08T20:46:35.144Z,11.40
2023-05-08T20:49:03.774Z,11.38
2023-05-08T20:51:31.850Z,11.33
2023-05-08T20:53:58.539Z,11.31
2023-05-08T20:56:25.471Z,11.28
2023-05-08T20:58:51.989Z,11.24
2023-05-08T21:01:20.929Z,11.23
2023-05-08T21:03:48.076Z,11.23
2023-05-08T21:06:14.604Z,11.21
2023-05-08T21:08:41.122Z,11.17
2023-05-08T21:11:07.548Z,11.12
2023-05-08T21:13:34.130Z,11.09
2023-05-08T21:16:00.849Z,11.07
2023-05-08T21:18:27.444Z,11.03
2023-05-08T21:20:54.000Z,11.00
2023-05-08T21:23:20.961Z,10.98
2023-05-08T21:25:48.245Z,10.96
2023-05-08T21:28:16.567Z,10.96
2023-05-08T21:30:43.810Z,10.95
2023-05-08T21:33:11.543Z,10.96
2023-05-08T21:35:38.138Z,10.97
2023-05-08T21:38:13.655Z,10.99
2023-05-08T21:40:40.380Z,10.97
2023-05-08T21:43:07.030Z,10.96
2023-05-08T21:45:33.904Z,10.95
2023-05-08T21:48:00.767Z,10.93
2023-05-08T21:50:30.062Z,10.93
2023-05-08T21:52:56.712Z,10.89
2023-05-08T21:55:23.800Z,10.83
2023-05-08T21:57:50.571Z,10.78
2023-05-08T22:00:18.620Z,10.71
2023-05-08T22:02:45.174Z,10.67
2023-05-08T22:05:11.949Z,10.70
2023-05-08T22:07:38.612Z,10.74
2023-05-08T22:10:05.828Z,10.77
2023-05-08T22:12:32.329Z,10.78
2023-05-08T22:14:58.824Z,10.77
2023-05-08T22:17:26.393Z,10.81
2023-05-08T22:19:52.946Z,10.83
2023-05-08T22:22:19.432Z,10.81
2023-05-08T22:24:45.951Z,10.79
2023-05-08T22:27:12.469Z,10.73
2023-05-08T22:29:38.910Z,10.77
2023-05-08T22:32:05.478Z,10.78
2023-05-08T22:34:31.944Z,10.78
2023-05-08T22:36:58.429Z,10.76
2023-05-08T22:39:26.259Z,10.75
2023-05-08T22:41:53.714Z,10.73
2023-05-08T22:44:20.412Z,10.69
2023-05-08T22:46:47.282Z,10.70
2023-05-08T22:49:13.868Z,10.64
2023-05-08T22:51:40.411Z,10.65
2023-05-08T22:54:07.401Z,10.61
2023-05-08T22:56:33.866Z,10.65
2023-05-08T22:59:00.384Z,10.62
2023-05-08T23:01:26.940Z,10.62
2023-05-08T23:03:54.333Z,10.52
2023-05-08T23:06:21.435Z,10.43
2023-05-08T23:08:48.093Z,10.37
2023-05-08T23:11:14.629Z,10.36
2023-05-08T23:13:41.181Z,10.33
2023-05-08T23:16:07.797Z,10.28
2023-05-08T23:18:34.591Z,10.21
2023-05-08T23:21:08.034Z,10.15
2023-05-08T23:23:35.682Z,10.15
2023-05-08T23:26:05.016Z,10.09
2023-05-08T23:28:33.800Z,10.02
2023-05-08T23:31:00.918Z,9.98
2023-05-08T23:33:27.663Z,9.97
2023-05-08T23:35:58.424Z,9.96
2023-05-08T23:38:25.986Z,9.93
2023-05-08T23:40:53.705Z,9.91
2023-05-08T23:43:20.185Z,9.91
2023-05-08T23:45:46.678Z,9.96
2023-05-08T23:48:13.261Z,9.99
2023-05-08T23:50:40.779Z,10.02
2023-05-08T23:53:07.637Z,10.01
2023-05-08T23:55:37.962Z,10.07
2023-05-08T23:58:04.846Z,10.14
